Koniz, Switzerland

7:31 PM CEST on April 27, 2017 (GMT +0200)
Blinzernstrasse | | Change Station

Elev 2004 ft 46.92 °N, 7.42 °E | Updated 9 minutes ago

Rain
Rain
38.8 °F
Feels Like 39 °F
N
2.5
Wind Variable Wind from North
Gusts 5.6 mph

Today
High -- | Low -- °F
--% Chance of Precip.
Yesterday
High -- | Low -- °F
Precip. -- in
Pressure 29.92 in
Visibility 6.2 miles
Clouds Scattered Clouds 1200 ft
Mostly Cloudy 1700 ft
Mostly Cloudy 4000 ft
Windchill 39 °F
Dew Point 36 °F
Humidity 89%
Rainfall 0.21 in
Snow Depth Not available.
6:21 AM 8:35 PM
New Moon, 2% visible
METAR LSZB 271720Z 35004KT 300V040 9999 -RA SCT012 BKN017 BKN040 04/02 Q1013 NOSIG
Pressure 29.92 in
Visibility 6.2 miles
Clouds Scattered Clouds 1200 ft
Mostly Cloudy 1700 ft
Mostly Cloudy 4000 ft
Windchill 39 °F
Dew Point 36 °F
Humidity 89%
Rainfall 0.21 in
Snow Depth Not available.
6:21 AM 8:35 PM
New Moon, 2% visible
METAR LSZB 271720Z 35004KT 300V040 9999 -RA SCT012 BKN017 BKN040 04/02 Q1013 NOSIG

Get Severe Weather Alerts

Thanks for signing up!

Be on the lookout for a verification email in your inbox.

You'll start receiving the daily forecast at 8 AM.

×

10-Day Weather Forecast

×

Almanac

Astronomy

Apr. 27, 2017 Rise Set
Actual Time
Civil Twilight
Nautical Twilight
Astronomical Twilight
Moon
Length of Visible Light
Length of Day
Tomorrow will be .
, % of the Moon is Illuminated

Today's Extremes

Country Highs Country Lows

Community

WunderPhotos

WunderBlog® & News

Nearby

Air Quality

  Air Quality AQ Index Pollutant
Not available.

Snow Depth

Station Depth Elevation

Earthquake Activity

City Distance Mag. Time & Date
Minimum magnitude displayed is 2.5.

Coastal Water Temperatures

Place Temperature

Stations

Nearby Weather Stations

Station Location Temp. Windchill Dew Point Humidity Wind Precip. Elev Updated Type